sensor_id;sensor_type;location;lat;lon;timestamp;pressure;altitude;pressure_sealevel;temperature;humidity
15056;BME280;7626;42.674;23.284;2023-01-28T00:00:09;94101.78;;;6.19;58.73
15056;BME280;7626;42.674;23.284;2023-01-28T00:02:37;94100.78;;;6.22;59.17
15056;BME280;7626;42.674;23.284;2023-01-28T00:05:06;94099.94;;;6.21;59.02
15056;BME280;7626;42.674;23.284;2023-01-28T00:07:34;94110.44;;;6.18;58.46
15056;BME280;7626;42.674;23.284;2023-01-28T00:10:01;94119.81;;;6.19;59.26
15056;BME280;7626;42.674;23.284;2023-01-28T00:12:29;94123.31;;;6.18;59.12
15056;BME280;7626;42.674;23.284;2023-01-28T00:14:56;94117.34;;;6.18;58.72
15056;BME280;7626;42.674;23.284;2023-01-28T00:17:23;94124.25;;;6.17;58.65
15056;BME280;7626;42.674;23.284;2023-01-28T00:19:50;94129.19;;;6.20;59.04
15056;BME280;7626;42.674;23.284;2023-01-28T00:22:17;94131.88;;;6.19;59.18
15056;BME280;7626;42.674;23.284;2023-01-28T00:24:46;94135.25;;;6.19;58.78
15056;BME280;7626;42.674;23.284;2023-01-28T00:27:13;94138.75;;;6.18;58.72
15056;BME280;7626;42.674;23.284;2023-01-28T00:29:43;94135.34;;;6.18;58.63
15056;BME280;7626;42.674;23.284;2023-01-28T00:32:10;94142.47;;;6.14;58.93
15056;BME280;7626;42.674;23.284;2023-01-28T00:34:36;94138.75;;;6.18;58.68
15056;BME280;7626;42.674;23.284;2023-01-28T00:37:04;94142.97;;;6.19;58.88
15056;BME280;7626;42.674;23.284;2023-01-28T00:39:31;94143.69;;;6.21;58.68
15056;BME280;7626;42.674;23.284;2023-01-28T00:41:58;94140.41;;;6.19;58.88
15056;BME280;7626;42.674;23.284;2023-01-28T00:44:24;94137.81;;;6.19;59.11
15056;BME280;7626;42.674;23.284;2023-01-28T00:46:52;94150.69;;;6.19;59.33
15056;BME280;7626;42.674;23.284;2023-01-28T00:49:19;94144.63;;;6.20;58.74
15056;BME280;7626;42.674;23.284;2023-01-28T00:51:46;94148.13;;;6.19;58.63
15056;BME280;7626;42.674;23.284;2023-01-28T00:54:13;94149.78;;;6.20;58.89
15056;BME280;7626;42.674;23.284;2023-01-28T00:56:40;94148.94;;;6.20;58.96
15056;BME280;7626;42.674;23.284;2023-01-28T00:59:07;94148.13;;;6.19;59.10
15056;BME280;7626;42.674;23.284;2023-01-28T01:01:33;94150.69;;;6.19;58.33
15056;BME280;7626;42.674;23.284;2023-01-28T01:04:02;94156.56;;;6.21;58.45
15056;BME280;7626;42.674;23.284;2023-01-28T01:06:31;94142.97;;;6.19;58.62
15056;BME280;7626;42.674;23.284;2023-01-28T01:08:59;94140.28;;;6.21;59.04
15056;BME280;7626;42.674;23.284;2023-01-28T01:11:26;94147.31;;;6.19;58.12
15056;BME280;7626;42.674;23.284;2023-01-28T01:13:54;94150.69;;;6.19;58.46
15056;BME280;7626;42.674;23.284;2023-01-28T01:16:23;94150.78;;;6.18;58.56
15056;BME280;7626;42.674;23.284;2023-01-28T01:18:51;94153.25;;;6.19;58.36
15056;BME280;7626;42.674;23.284;2023-01-28T01:21:22;94155.94;;;6.18;58.64
15056;BME280;7626;42.674;23.284;2023-01-28T01:23:50;94150.91;;;6.16;58.87
15056;BME280;7626;42.674;23.284;2023-01-28T01:26:17;94160.28;;;6.17;58.75
15056;BME280;7626;42.674;23.284;2023-01-28T01:28:44;94157.81;;;6.16;58.91
15056;BME280;7626;42.674;23.284;2023-01-28T01:31:13;94160.28;;;6.17;58.41
15056;BME280;7626;42.674;23.284;2023-01-28T01:33:40;94157.00;;;6.15;58.41
15056;BME280;7626;42.674;23.284;2023-01-28T01:36:08;94161.91;;;6.18;58.80
15056;BME280;7626;42.674;23.284;2023-01-28T01:38:37;94163.75;;;6.16;58.79
15056;BME280;7626;42.674;23.284;2023-01-28T01:41:06;94163.66;;;6.18;58.20
15056;BME280;7626;42.674;23.284;2023-01-28T01:43:47;94161.19;;;6.16;58.66
15056;BME280;7626;42.674;23.284;2023-01-28T01:46:16;94162.84;;;6.17;58.53
15056;BME280;7626;42.674;23.284;2023-01-28T01:48:45;94162.75;;;6.19;58.55
15056;BME280;7626;42.674;23.284;2023-01-28T01:51:14;94167.06;;;6.18;58.72
15056;BME280;7626;42.674;23.284;2023-01-28T01:53:46;94160.19;;;6.19;58.56
15056;BME280;7626;42.674;23.284;2023-01-28T01:56:16;94157.69;;;6.17;58.77
15056;BME280;7626;42.674;23.284;2023-01-28T01:58:46;94173.25;;;6.16;58.65
15056;BME280;7626;42.674;23.284;2023-01-28T02:01:15;94161.09;;;6.18;58.16
15056;BME280;7626;42.674;23.284;2023-01-28T02:03:56;94166.53;;;6.13;58.47
15056;BME280;7626;42.674;23.284;2023-01-28T02:06:26;94162.94;;;6.16;58.19
15056;BME280;7626;42.674;23.284;2023-01-28T02:08:55;94169.75;;;6.17;58.27
15056;BME280;7626;42.674;23.284;2023-01-28T02:11:24;94174.91;;;6.17;58.53
15056;BME280;7626;42.674;23.284;2023-01-28T02:13:53;94180.16;;;6.15;58.61
15056;BME280;7626;42.674;23.284;2023-01-28T02:16:22;94180.97;;;6.16;58.48
15056;BME280;7626;42.674;23.284;2023-01-28T02:18:50;94175.81;;;6.16;58.52
15056;BME280;7626;42.674;23.284;2023-01-28T02:21:44;94176.72;;;6.15;58.48
15056;BME280;7626;42.674;23.284;2023-01-28T02:24:39;94178.50;;;6.14;58.23
15056;BME280;7626;42.674;23.284;2023-01-28T02:27:18;94181.06;;;6.14;58.50
15056;BME280;7626;42.674;23.284;2023-01-28T02:29:53;94178.50;;;6.14;58.19
15056;BME280;7626;42.674;23.284;2023-01-28T02:32:28;94185.28;;;6.15;58.32
15056;BME280;7626;42.674;23.284;2023-01-28T02:35:06;94176.84;;;6.13;58.34
15056;BME280;7626;42.674;23.284;2023-01-28T02:37:43;94179.50;;;6.12;58.32
15056;BME280;7626;42.674;23.284;2023-01-28T02:40:17;94175.09;;;6.14;58.50
15056;BME280;7626;42.674;23.284;2023-01-28T02:42:45;94181.97;;;6.13;57.76
15056;BME280;7626;42.674;23.284;2023-01-28T02:45:23;94181.88;;;6.15;58.52
15056;BME280;7626;42.674;23.284;2023-01-28T02:48:12;94181.16;;;6.13;57.94
15056;BME280;7626;42.674;23.284;2023-01-28T02:50:46;94176.94;;;6.12;58.31
15056;BME280;7626;42.674;23.284;2023-01-28T02:53:19;94176.13;;;6.11;58.42
15056;BME280;7626;42.674;23.284;2023-01-28T02:56:13;94174.38;;;6.12;58.60
15056;BME280;7626;42.674;23.284;2023-01-28T02:58:48;94182.94;;;6.12;58.63
15056;BME280;7626;42.674;23.284;2023-01-28T03:01:24;94184.75;;;6.10;57.99
15056;BME280;7626;42.674;23.284;2023-01-28T03:03:58;94178.69;;;6.11;58.17
15056;BME280;7626;42.674;23.284;2023-01-28T03:06:29;94192.38;;;6.12;58.57
15056;BME280;7626;42.674;23.284;2023-01-28T03:09:02;94193.22;;;6.12;58.18
15056;BME280;7626;42.674;23.284;2023-01-28T03:11:52;94186.31;;;6.13;58.14
15056;BME280;7626;42.674;23.284;2023-01-28T03:14:38;94191.56;;;6.11;57.81
15056;BME280;7626;42.674;23.284;2023-01-28T03:17:29;94195.91;;;6.11;57.92
15056;BME280;7626;42.674;23.284;2023-01-28T03:20:16;94196.72;;;6.11;58.56
15056;BME280;7626;42.674;23.284;2023-01-28T03:23:06;94193.41;;;6.09;57.38
15056;BME280;7626;42.674;23.284;2023-01-28T03:25:53;94193.31;;;6.11;57.89
15056;BME280;7626;42.674;23.284;2023-01-28T03:28:39;94193.31;;;6.11;57.77
15056;BME280;7626;42.674;23.284;2023-01-28T03:31:25;94190.94;;;6.07;57.85
15056;BME280;7626;42.674;23.284;2023-01-28T03:34:13;94198.66;;;6.07;58.25
15056;BME280;7626;42.674;23.284;2023-01-28T03:36:58;94194.34;;;6.08;58.46
15056;BME280;7626;42.674;23.284;2023-01-28T03:39:27;94190.94;;;6.07;57.82
15056;BME280;7626;42.674;23.284;2023-01-28T03:41:56;94193.63;;;6.06;57.84
15056;BME280;7626;42.674;23.284;2023-01-28T03:44:24;94203.91;;;6.06;57.81
15056;BME280;7626;42.674;23.284;2023-01-28T03:47:09;94203.81;;;6.07;58.16
15056;BME280;7626;42.674;23.284;2023-01-28T03:49:39;94202.91;;;6.08;58.05
15056;BME280;7626;42.674;23.284;2023-01-28T03:52:06;94206.28;;;6.09;58.19
15056;BME280;7626;42.674;23.284;2023-01-28T03:54:33;94202.91;;;6.08;57.92
15056;BME280;7626;42.674;23.284;2023-01-28T03:57:00;94205.56;;;6.07;57.62
15056;BME280;7626;42.674;23.284;2023-01-28T03:59:28;94211.53;;;6.07;57.88
15056;BME280;7626;42.674;23.284;2023-01-28T04:01:54;94203.81;;;6.07;58.29
15056;BME280;7626;42.674;23.284;2023-01-28T04:04:21;94210.63;;;6.08;58.23
15056;BME280;7626;42.674;23.284;2023-01-28T04:06:52;94215.78;;;6.08;57.87
15056;BME280;7626;42.674;23.284;2023-01-28T04:09:19;94212.75;;;6.02;57.08
15056;BME280;7626;42.674;23.284;2023-01-28T04:11:46;94214.22;;;6.06;57.62
15056;BME280;7626;42.674;23.284;2023-01-28T04:14:13;94222.94;;;6.03;58.07
15056;BME280;7626;42.674;23.284;2023-01-28T04:16:41;94216.69;;;6.07;57.78
15056;BME280;7626;42.674;23.284;2023-01-28T04:19:08;94226.16;;;6.07;58.25
15056;BME280;7626;42.674;23.284;2023-01-28T04:21:35;94226.16;;;6.07;58.25
15056;BME280;7626;42.674;23.284;2023-01-28T04:24:06;94223.50;;;6.08;57.94
15056;BME280;7626;42.674;23.284;2023-01-28T04:26:33;94226.06;;;6.08;57.93
15056;BME280;7626;42.674;23.284;2023-01-28T04:29:00;94229.44;;;6.09;57.82
15056;BME280;7626;42.674;23.284;2023-01-28T04:31:27;94233.78;;;6.08;57.50
15056;BME280;7626;42.674;23.284;2023-01-28T04:33:54;94232.13;;;6.07;57.69
15056;BME280;7626;42.674;23.284;2023-01-28T04:36:20;94235.50;;;6.08;58.15
15056;BME280;7626;42.674;23.284;2023-01-28T04:38:47;94242.50;;;6.06;58.00
15056;BME280;7626;42.674;23.284;2023-01-28T04:41:15;94238.19;;;6.06;58.00
15056;BME280;7626;42.674;23.284;2023-01-28T04:43:42;94246.84;;;6.05;57.62
15056;BME280;7626;42.674;23.284;2023-01-28T04:46:09;94244.16;;;6.07;57.93
15056;BME280;7626;42.674;23.284;2023-01-28T04:48:37;94252.72;;;6.07;57.43
15056;BME280;7626;42.674;23.284;2023-01-28T04:51:05;94246.75;;;6.07;58.01
15056;BME280;7626;42.674;23.284;2023-01-28T04:53:33;94255.38;;;6.06;57.83
15056;BME280;7626;42.674;23.284;2023-01-28T04:56:01;94257.13;;;6.05;57.81
15056;BME280;7626;42.674;23.284;2023-01-28T04:58:33;94258.16;;;6.03;58.13
15056;BME280;7626;42.674;23.284;2023-01-28T05:00:59;94258.06;;;6.04;57.59
15056;BME280;7626;42.674;23.284;2023-01-28T05:03:27;94263.09;;;6.06;58.06
15056;BME280;7626;42.674;23.284;2023-01-28T05:05:54;94264.84;;;6.05;57.80
15056;BME280;7626;42.674;23.284;2023-01-28T05:08:22;94264.09;;;6.03;57.72
15056;BME280;7626;42.674;23.284;2023-01-28T05:10:51;94264.22;;;6.02;58.11
15056;BME280;7626;42.674;23.284;2023-01-28T05:13:20;94272.97;;;5.99;57.83
15056;BME280;7626;42.674;23.284;2023-01-28T05:15:52;94270.50;;;5.98;57.63
15056;BME280;7626;42.674;23.284;2023-01-28T05:18:19;94281.88;;;5.94;57.67
15056;BME280;7626;42.674;23.284;2023-01-28T05:20:47;94278.38;;;5.95;57.59
15056;BME280;7626;42.674;23.284;2023-01-28T05:23:14;94283.53;;;5.95;57.70
15056;BME280;7626;42.674;23.284;2023-01-28T05:25:40;94285.19;;;5.96;57.94
15056;BME280;7626;42.674;23.284;2023-01-28T05:28:07;94285.13;;;5.97;57.65
15056;BME280;7626;42.674;23.284;2023-01-28T05:30:34;94288.66;;;5.95;58.03
15056;BME280;7626;42.674;23.284;2023-01-28T05:33:02;94287.69;;;5.97;58.01
15056;BME280;7626;42.674;23.284;2023-01-28T05:35:30;94286.84;;;5.97;57.88
15056;BME280;7626;42.674;23.284;2023-01-28T05:37:57;94293.75;;;5.96;57.95
15056;BME280;7626;42.674;23.284;2023-01-28T05:40:24;94296.38;;;5.95;57.75
15056;BME280;7626;42.674;23.284;2023-01-28T05:42:51;94298.03;;;5.96;57.39
15056;BME280;7626;42.674;23.284;2023-01-28T05:45:19;94302.19;;;5.98;57.89
15056;BME280;7626;42.674;23.284;2023-01-28T05:47:46;94303.03;;;5.99;57.39
15056;BME280;7626;42.674;23.284;2023-01-28T05:50:14;94306.31;;;6.01;57.59
15056;BME280;7626;42.674;23.284;2023-01-28T05:52:42;94298.69;;;5.99;57.78
15056;BME280;7626;42.674;23.284;2023-01-28T05:55:12;94302.09;;;6.00;57.74
15056;BME280;7626;42.674;23.284;2023-01-28T05:57:40;94299.41;;;6.01;57.50
15056;BME280;7626;42.674;23.284;2023-01-28T06:00:11;94298.59;;;6.01;57.31
15056;BME280;7626;42.674;23.284;2023-01-28T06:02:39;94300.22;;;6.02;57.39
15056;BME280;7626;42.674;23.284;2023-01-28T06:05:08;94309.69;;;6.01;57.68
15056;BME280;7626;42.674;23.284;2023-01-28T06:07:36;94310.66;;;6.00;57.41
15056;BME280;7626;42.674;23.284;2023-01-28T06:10:04;94315.66;;;6.02;57.23
15056;BME280;7626;42.674;23.284;2023-01-28T06:12:31;94319.91;;;6.03;57.39
15056;BME280;7626;42.674;23.284;2023-01-28T06:14:59;94320.81;;;6.02;57.19
15056;BME280;7626;42.674;23.284;2023-01-28T06:17:26;94331.09;;;6.02;57.38
15056;BME280;7626;42.674;23.284;2023-01-28T06:19:54;94336.25;;;6.02;57.92
15056;BME280;7626;42.674;23.284;2023-01-28T06:22:22;94331.94;;;6.02;57.21
15056;BME280;7626;42.674;23.284;2023-01-28T06:24:50;94343.97;;;6.02;57.56
15056;BME280;7626;42.674;23.284;2023-01-28T06:27:18;94350.06;;;6.01;57.39
15056;BME280;7626;42.674;23.284;2023-01-28T06:29:45;94345.81;;;6.00;57.68
15056;BME280;7626;42.674;23.284;2023-01-28T06:32:13;94356.22;;;5.98;57.29
15056;BME280;7626;42.674;23.284;2023-01-28T06:34:40;94357.16;;;5.97;57.74
15056;BME280;7626;42.674;23.284;2023-01-28T06:37:11;94356.22;;;5.98;57.97
15056;BME280;7626;42.674;23.284;2023-01-28T06:39:40;94363.03;;;5.99;57.44
15056;BME280;7626;42.674;23.284;2023-01-28T06:42:15;94358.88;;;5.97;57.03
15056;BME280;7626;42.674;23.284;2023-01-28T06:44:44;94366.31;;;6.01;57.32
15056;BME280;7626;42.674;23.284;2023-01-28T06:47:15;94372.28;;;6.02;57.54
15056;BME280;7626;42.674;23.284;2023-01-28T06:49:42;94373.22;;;6.01;57.36
15056;BME280;7626;42.674;23.284;2023-01-28T06:52:09;94380.94;;;6.01;57.33
15056;BME280;7626;42.674;23.284;2023-01-28T06:54:39;94381.84;;;6.00;57.17
15056;BME280;7626;42.674;23.284;2023-01-28T06:57:07;94386.09;;;6.01;56.91
15056;BME280;7626;42.674;23.284;2023-01-28T06:59:38;94389.47;;;6.01;57.27
15056;BME280;7626;42.674;23.284;2023-01-28T07:02:05;94392.03;;;6.01;57.32
15056;BME280;7626;42.674;23.284;2023-01-28T07:04:35;94392.03;;;6.01;57.44
15056;BME280;7626;42.674;23.284;2023-01-28T07:07:02;94391.22;;;6.01;57.06
15056;BME280;7626;42.674;23.284;2023-01-28T07:09:28;94396.38;;;6.01;57.09
15056;BME280;7626;42.674;23.284;2023-01-28T07:11:55;94395.56;;;6.00;57.16
15056;BME280;7626;42.674;23.284;2023-01-28T07:14:23;94402.44;;;6.00;56.78
15056;BME280;7626;42.674;23.284;2023-01-28T07:16:51;94405.00;;;6.00;56.69
15056;BME280;7626;42.674;23.284;2023-01-28T07:19:18;94411.09;;;5.99;56.65
15056;BME280;7626;42.674;23.284;2023-01-28T07:21:46;94412.00;;;5.98;56.56
15056;BME280;7626;42.674;23.284;2023-01-28T07:24:13;94413.56;;;6.00;56.84
15056;BME280;7626;42.674;23.284;2023-01-28T07:26:42;94414.38;;;6.01;57.03
15056;BME280;7626;42.674;23.284;2023-01-28T07:29:10;94417.97;;;5.98;57.31
15056;BME280;7626;42.674;23.284;2023-01-28T07:31:38;94418.97;;;5.96;57.02
15056;BME280;7626;42.674;23.284;2023-01-28T07:34:08;94423.84;;;6.00;57.38
15056;BME280;7626;42.674;23.284;2023-01-28T07:36:37;94421.28;;;6.00;57.04
15056;BME280;7626;42.674;23.284;2023-01-28T07:39:04;94422.00;;;6.02;56.81
15056;BME280;7626;42.674;23.284;2023-01-28T07:41:45;94428.69;;;6.05;57.09
15056;BME280;7626;42.674;23.284;2023-01-28T07:44:14;94429.53;;;6.05;56.92
15056;BME280;7626;42.674;23.284;2023-01-28T07:46:42;94439.75;;;6.07;57.20
15056;BME280;7626;42.674;23.284;2023-01-28T07:49:10;94434.59;;;6.07;57.28
15056;BME280;7626;42.674;23.284;2023-01-28T07:51:54;94443.31;;;6.04;57.22
15056;BME280;7626;42.674;23.284;2023-01-28T07:54:23;94448.38;;;6.06;56.51
15056;BME280;7626;42.674;23.284;2023-01-28T07:56:53;94447.47;;;6.07;56.52
15056;BME280;7626;42.674;23.284;2023-01-28T07:59:23;94442.31;;;6.07;57.04
15056;BME280;7626;42.674;23.284;2023-01-28T08:01:50;94450.75;;;6.09;56.43
15056;BME280;7626;42.674;23.284;2023-01-28T08:04:19;94451.66;;;6.08;56.65
15056;BME280;7626;42.674;23.284;2023-01-28T08:06:48;94451.66;;;6.08;56.33
15056;BME280;7626;42.674;23.284;2023-01-28T08:09:17;94458.38;;;6.11;56.96
15056;BME280;7626;42.674;23.284;2023-01-28T08:11:44;94456.63;;;6.11;56.74
15056;BME280;7626;42.674;23.284;2023-01-28T08:14:11;94453.03;;;6.14;56.76
15056;BME280;7626;42.674;23.284;2023-01-28T08:16:38;94461.59;;;6.14;56.28
15056;BME280;7626;42.674;23.284;2023-01-28T08:19:05;94462.31;;;6.16;56.70
15056;BME280;7626;42.674;23.284;2023-01-28T08:21:33;94464.78;;;6.18;56.87
15056;BME280;7626;42.674;23.284;2023-01-28T08:24:00;94465.72;;;6.17;56.22
15056;BME280;7626;42.674;23.284;2023-01-28T08:26:27;94469.84;;;6.19;56.77
15056;BME280;7626;42.674;23.284;2023-01-28T08:28:53;94460.34;;;6.20;56.88
15056;BME280;7626;42.674;23.284;2023-01-28T08:31:20;94469.75;;;6.21;56.67
15056;BME280;7626;42.674;23.284;2023-01-28T08:33:47;94472.94;;;6.24;56.61
15056;BME280;7626;42.674;23.284;2023-01-28T08:36:14;94472.94;;;6.24;56.63
15056;BME280;7626;42.674;23.284;2023-01-28T08:38:42;94465.13;;;6.26;56.36
15056;BME280;7626;42.674;23.284;2023-01-28T08:41:09;94465.03;;;6.28;56.09
15056;BME280;7626;42.674;23.284;2023-01-28T08:43:36;94464.75;;;6.32;55.90
15056;BME280;7626;42.674;23.284;2023-01-28T08:46:04;94473.28;;;6.33;55.99
15056;BME280;7626;42.674;23.284;2023-01-28T08:48:31;94469.91;;;6.32;55.96
15056;BME280;7626;42.674;23.284;2023-01-28T08:50:58;94458.47;;;6.36;55.89
15056;BME280;7626;42.674;23.284;2023-01-28T08:53:25;94466.84;;;6.40;55.84
15056;BME280;7626;42.674;23.284;2023-01-28T08:55:53;94471.91;;;6.41;55.87
15056;BME280;7626;42.674;23.284;2023-01-28T08:58:20;94469.31;;;6.41;55.93
15056;BME280;7626;42.674;23.284;2023-01-28T09:00:48;94468.91;;;6.48;55.73
15056;BME280;7626;42.674;23.284;2023-01-28T09:03:15;94474.06;;;6.48;55.76
15056;BME280;7626;42.674;23.284;2023-01-28T09:05:42;94465.22;;;6.52;55.93
15056;BME280;7626;42.674;23.284;2023-01-28T09:08:11;94469.66;;;6.50;55.41
15056;BME280;7626;42.674;23.284;2023-01-28T09:10:38;94479.53;;;6.56;55.24
15056;BME280;7626;42.674;23.284;2023-01-28T09:13:08;94476.88;;;6.57;55.94
15056;BME280;7626;42.674;23.284;2023-01-28T09:15:36;94472.56;;;6.58;55.42
15056;BME280;7626;42.674;23.284;2023-01-28T09:18:03;94487.06;;;6.59;55.37
15056;BME280;7626;42.674;23.284;2023-01-28T09:20:30;94483.59;;;6.60;55.30
15056;BME280;7626;42.674;23.284;2023-01-28T09:22:59;94479.25;;;6.60;55.43
15056;BME280;7626;42.674;23.284;2023-01-28T09:25:28;94481.81;;;6.60;55.34
15056;BME280;7626;42.674;23.284;2023-01-28T09:27:55;94475.00;;;6.59;55.51
15056;BME280;7626;42.674;23.284;2023-01-28T09:30:25;94473.00;;;6.65;55.74
15056;BME280;7626;42.674;23.284;2023-01-28T09:32:53;94482.53;;;6.62;55.30
15056;BME280;7626;42.674;23.284;2023-01-28T09:35:20;94479.88;;;6.64;55.42
15056;BME280;7626;42.674;23.284;2023-01-28T09:37:47;94476.28;;;6.67;55.47
15056;BME280;7626;42.674;23.284;2023-01-28T09:40:17;94477.09;;;6.67;55.66
15056;BME280;7626;42.674;23.284;2023-01-28T09:42:55;94476.81;;;6.72;55.55
15056;BME280;7626;42.674;23.284;2023-01-28T09:45:31;94478.38;;;6.74;55.19
15056;BME280;7626;42.674;23.284;2023-01-28T09:48:02;94472.38;;;6.74;55.57
15056;BME280;7626;42.674;23.284;2023-01-28T09:50:32;94478.56;;;6.71;55.23
15056;BME280;7626;42.674;23.284;2023-01-28T09:53:03;94474.13;;;6.73;55.06
15056;BME280;7626;42.674;23.284;2023-01-28T09:55:32;94484.16;;;6.78;55.15
15056;BME280;7626;42.674;23.284;2023-01-28T09:58:03;94479.91;;;6.77;55.43
15056;BME280;7626;42.674;23.284;2023-01-28T10:00:37;94476.53;;;6.76;55.34
15056;BME280;7626;42.674;23.284;2023-01-28T10:03:27;94476.63;;;6.75;55.25
15056;BME280;7626;42.674;23.284;2023-01-28T10:06:03;94478.66;;;6.70;55.29
15056;BME280;7626;42.674;23.284;2023-01-28T10:11:44;94471.75;;;6.70;55.00
15056;BME280;7626;42.674;23.284;2023-01-28T10:14:17;94467.22;;;6.74;55.25
15056;BME280;7626;42.674;23.284;2023-01-28T10:16:51;94465.50;;;6.74;55.21
15056;BME280;7626;42.674;23.284;2023-01-28T10:19:23;94467.22;;;6.74;55.33
15056;BME280;7626;42.674;23.284;2023-01-28T10:21:54;94471.75;;;6.70;55.50
15056;BME280;7626;42.674;23.284;2023-01-28T10:24:24;94465.59;;;6.73;55.31
15056;BME280;7626;42.674;23.284;2023-01-28T10:26:56;94474.25;;;6.72;55.11
15056;BME280;7626;42.674;23.284;2023-01-28T10:29:26;94473.22;;;6.74;55.40
15056;BME280;7626;42.674;23.284;2023-01-28T10:31:59;94477.34;;;6.77;55.70
15056;BME280;7626;42.674;23.284;2023-01-28T10:34:30;94467.84;;;6.77;55.37
15056;BME280;7626;42.674;23.284;2023-01-28T10:36:57;94473.09;;;6.76;55.66
15056;BME280;7626;42.674;23.284;2023-01-28T10:39:24;94466.75;;;6.81;55.14
15056;BME280;7626;42.674;23.284;2023-01-28T10:41:53;94455.53;;;6.82;55.07
15056;BME280;7626;42.674;23.284;2023-01-28T10:44:28;94467.34;;;6.85;55.32
15056;BME280;7626;42.674;23.284;2023-01-28T10:47:01;94458.72;;;6.86;55.41
15056;BME280;7626;42.674;23.284;2023-01-28T10:49:30;94463.03;;;6.86;55.12
15056;BME280;7626;42.674;23.284;2023-01-28T10:51:58;94459.44;;;6.88;55.39
15056;BME280;7626;42.674;23.284;2023-01-28T10:54:26;94457.66;;;6.89;55.06
15056;BME280;7626;42.674;23.284;2023-01-28T10:56:56;94465.09;;;6.93;55.06
15056;BME280;7626;42.674;23.284;2023-01-28T10:59:26;94461.31;;;6.99;55.36
15056;BME280;7626;42.674;23.284;2023-01-28T11:01:55;94460.16;;;7.03;55.21
15056;BME280;7626;42.674;23.284;2023-01-28T11:04:25;94461.41;;;7.10;55.00
15056;BME280;7626;42.674;23.284;2023-01-28T11:06:56;94462.03;;;7.14;54.77
15056;BME280;7626;42.674;23.284;2023-01-28T11:09:27;94462.75;;;7.16;55.00
15056;BME280;7626;42.674;23.284;2023-01-28T11:11:55;94459.25;;;7.17;54.87
15056;BME280;7626;42.674;23.284;2023-01-28T11:14:24;94461.72;;;7.18;54.70
15056;BME280;7626;42.674;23.284;2023-01-28T11:16:53;94463.28;;;7.21;54.52
15056;BME280;7626;42.674;23.284;2023-01-28T11:19:30;94462.25;;;7.24;54.81
15056;BME280;7626;42.674;23.284;2023-01-28T11:22:01;94457.91;;;7.24;54.28
15056;BME280;7626;42.674;23.284;2023-01-28T11:24:30;94461.31;;;7.25;54.62
15056;BME280;7626;42.674;23.284;2023-01-28T11:27:09;94458.63;;;7.26;54.67
15056;BME280;7626;42.674;23.284;2023-01-28T11:29:39;94455.13;;;7.27;54.70
15056;BME280;7626;42.674;23.284;2023-01-28T11:32:16;94452.47;;;7.29;54.54
15056;BME280;7626;42.674;23.284;2023-01-28T11:34:51;94458.34;;;7.31;54.80
15056;BME280;7626;42.674;23.284;2023-01-28T11:37:20;94458.34;;;7.31;54.39
15056;BME280;7626;42.674;23.284;2023-01-28T11:39:48;94460.81;;;7.32;54.69
15056;BME280;7626;42.674;23.284;2023-01-28T11:42:16;94448.63;;;7.34;54.41
15056;BME280;7626;42.674;23.284;2023-01-28T11:44:44;94452.75;;;7.37;54.74
15056;BME280;7626;42.674;23.284;2023-01-28T11:47:38;94447.41;;;7.40;54.45
15056;BME280;7626;42.674;23.284;2023-01-28T11:50:21;94451.50;;;7.43;54.60
15056;BME280;7626;42.674;23.284;2023-01-28T11:52:59;94451.41;;;7.44;54.61
15056;BME280;7626;42.674;23.284;2023-01-28T11:55:38;94448.13;;;7.42;54.09
15056;BME280;7626;42.674;23.284;2023-01-28T11:58:20;94443.47;;;7.47;54.34
15056;BME280;7626;42.674;23.284;2023-01-28T12:00:59;94454.50;;;7.49;54.28
15056;BME280;7626;42.674;23.284;2023-01-28T12:03:54;94448.31;;;7.52;54.31
15056;BME280;7626;42.674;23.284;2023-01-28T12:06:45;94451.72;;;7.52;54.23
15056;BME280;7626;42.674;23.284;2023-01-28T12:09:20;94446.34;;;7.55;54.36
15056;BME280;7626;42.674;23.284;2023-01-28T12:12:04;94450.91;;;7.52;54.20
15056;BME280;7626;42.674;23.284;2023-01-28T12:15:06;94456.56;;;7.57;54.44
15056;BME280;7626;42.674;23.284;2023-01-28T12:17:43;94442.94;;;7.55;53.85
15056;BME280;7626;42.674;23.284;2023-01-28T12:20:17;94453.03;;;7.58;54.25
15056;BME280;7626;42.674;23.284;2023-01-28T12:23:02;94453.16;;;7.57;53.99
15056;BME280;7626;42.674;23.284;2023-01-28T12:25:49;94443.78;;;7.55;54.09
15056;BME280;7626;42.674;23.284;2023-01-28T12:28:28;94448.81;;;7.57;54.24
15056;BME280;7626;42.674;23.284;2023-01-28T12:31:12;94452.63;;;7.51;53.74
15056;BME280;7626;42.674;23.284;2023-01-28T12:33:53;94458.75;;;7.50;53.84
15056;BME280;7626;42.674;23.284;2023-01-28T12:36:39;94460.38;;;7.51;53.82
15056;BME280;7626;42.674;23.284;2023-01-28T12:39:18;94460.38;;;7.51;53.83
15056;BME280;7626;42.674;23.284;2023-01-28T12:41:53;94462.94;;;7.51;53.90
15056;BME280;7626;42.674;23.284;2023-01-28T12:44:29;94460.47;;;7.50;54.12
15056;BME280;7626;42.674;23.284;2023-01-28T12:47:00;94464.72;;;7.51;54.02
15056;BME280;7626;42.674;23.284;2023-01-28T12:49:31;94471.44;;;7.53;54.07
15056;BME280;7626;42.674;23.284;2023-01-28T12:52:02;94473.91;;;7.55;54.22
15056;BME280;7626;42.674;23.284;2023-01-28T12:54:38;94475.03;;;7.51;54.02
15056;BME280;7626;42.674;23.284;2023-01-28T12:57:12;94478.22;;;7.54;54.57
15056;BME280;7626;42.674;23.284;2023-01-28T12:59:44;94480.69;;;7.56;54.10
15056;BME280;7626;42.674;23.284;2023-01-28T13:02:22;94477.19;;;7.57;54.25
15056;BME280;7626;42.674;23.284;2023-01-28T13:04:55;94478.72;;;7.60;53.90
15056;BME280;7626;42.674;23.284;2023-01-28T13:07:31;94473.91;;;7.55;53.81
15056;BME280;7626;42.674;23.284;2023-01-28T13:10:05;94474.72;;;7.55;53.67
15056;BME280;7626;42.674;23.284;2023-01-28T13:12:38;94485.66;;;7.59;53.99
15056;BME280;7626;42.674;23.284;2023-01-28T13:15:10;94485.66;;;7.59;53.72
15056;BME280;7626;42.674;23.284;2023-01-28T13:17:39;94489.38;;;7.55;53.63
15056;BME280;7626;42.674;23.284;2023-01-28T13:20:30;94489.28;;;7.57;53.88
15056;BME280;7626;42.674;23.284;2023-01-28T13:23:02;94503.81;;;7.58;54.46
15056;BME280;7626;42.674;23.284;2023-01-28T13:25:33;94493.59;;;7.56;54.27
15056;BME280;7626;42.674;23.284;2023-01-28T13:28:02;94498.84;;;7.54;54.34
15056;BME280;7626;42.674;23.284;2023-01-28T13:30:31;94492.88;;;7.54;53.98
15056;BME280;7626;42.674;23.284;2023-01-28T13:32:59;94496.38;;;7.53;53.78